Accueil
METAR-TAF:

METAR-TAF

Aéroports :

Aéroport de Magenta

Nouméa, Nouvelle-Calédonie

latitude: 22-15-30S, longitude: 166-28-22E, altitude: 3 m

METAR: absent

Heure: 12:42 (01:42 UTC)

Prévision

Le bulletin a été fait il y a 8 heures et 42 minutes, à 17:00 UTC
Prévision valable du 22 à 18 UTC au 23 à 18 UTC
Vent 10 kt de est
Visibilité 10 km ou plus
Quelques nuages à une hauteur de 3500 ft
Nuages fragmentés à une hauteur de 14000 ft
Temporairement
du 23 à 00 UTC au 23 à 15 UTC
pluie
Evoluant progressivement
du 23 à 05 UTC au 23 à 08 UTC
Vent 3 kt de direction variable

TAF: NWWM 221700Z 2218/2318 09010KT 9999 FEW035 BKN140 TEMPO 2300/2315 RA BECMG 2305/2308 VRB03KT

Observations et prévisions météorologiques de plus de 4000 aéroports (messages METAR et TAF).

Les stations disponibles sont représentées par des disques jaunes et rouges sur la carte.

Passer la souris dessus pour voir le nom de la station.

Cliquer dessus pour voir les observations et prévisions météorologiques.

Pour changer de carte: cliquez sur les boutons verts avec une croix noire pour zoomer, sur le bouton vert avec un tiret pour effectuer un zoom arrière, ou sur les flèches vertes pour les cartes adjacentes.


METAR-TAF: